TJA weather

Capitan Oriel Lea Plaza Airport
Tarija, Tarija Department, Bolivia

Public forecast

Using degrees Celsius for public forecast. Weather courtesy of forecast.io.

METAR (pilot weather report)

Retrieved 2019/04/24 01:00 UTC (29 minutes ago):

SLTJ 240100Z 13006KT 9999 FEW027 BKN070 18/13 Q1019

TAF (pilot weather forecast)

Forecast is more than 12 hours old.

Retrieved 2019/04/23 00:53 UTC (1 day ago):

TAF SLTJ 232250Z 2400/2424 00000KT 9999 SCT023 SCT070 TX25/2419Z TN15 /2411Z PROB30 TEMPO 2406/2408 6000 RA BKN020 BKN070 BECMG 2414/2416 13014KT SCT027 SCT070